Current Conditions
Clear
Conditions



Pressure
29.96 (inHG) - 1014.52 (mb)
Visibility

9.9 (mimiles) - 16.0 (km)
   Temperature
81  °F
27°C
73  °F
Dewpoint
79  %
 Humidity
   Wind Speed
0  mph
0  kts
0  km/h
0  m/s
   Wind Direction
Calm
Due North
   Airport Data
KDWH
Location David Wayne Hooks Memorial Airport 4.4 mi (7.08 km)
Metar :KDWH 030253Z 00000KT 10SM CLR 27/23 A2996 RMK AO2 SLP144 T02720233 53010
Mon 2nd August 21:53 pm
   Raw Metar Info
Raw METAR is the most common format in the world for the transmission of observational weather data. It is highly standardized through the International Civil Aviation Organization (ICAO), which allows it to be understood throughout most of the world.
   API Info
Data Provided by
https://www.checkwx.com/weather/KDWH
   © Info
CSS/SVG/PHP scripts were developed by weather34.com for use in the weather34 template © 2015-2021

Guide Info provided by Metar-Wikipedia